createdAt,value
2023-05-24T00:00:16.054Z,1.50
2023-05-24T00:02:43.361Z,1.67
2023-05-24T00:05:18.947Z,1.80
2023-05-24T00:07:53.002Z,1.85
2023-05-24T00:10:20.079Z,1.50
2023-05-24T00:12:51.617Z,1.60
2023-05-24T00:15:21.020Z,1.60
2023-05-24T00:17:52.875Z,1.60
2023-05-24T00:20:21.012Z,1.70
2023-05-24T00:22:48.253Z,1.40
2023-05-24T00:25:20.340Z,1.27
2023-05-24T00:27:47.420Z,1.95
2023-05-24T00:30:14.493Z,1.60
2023-05-24T00:32:41.584Z,1.20
2023-05-24T00:35:08.835Z,1.40
2023-05-24T00:37:38.068Z,1.30
2023-05-24T00:40:06.622Z,1.73
2023-05-24T00:42:33.634Z,1.38
2023-05-24T00:45:03.421Z,1.48
2023-05-24T00:47:30.474Z,1.00
2023-05-24T00:50:02.133Z,1.92
2023-05-24T00:52:29.076Z,1.40
2023-05-24T00:54:58.140Z,1.38
2023-05-24T00:57:29.008Z,1.30
2023-05-24T00:59:56.131Z,1.30
2023-05-24T01:02:25.352Z,1.25
2023-05-24T01:04:56.278Z,1.10
2023-05-24T01:07:39.141Z,1.38
2023-05-24T01:10:43.776Z,1.42
2023-05-24T01:13:38.144Z,1.13
2023-05-24T01:16:18.102Z,1.65
2023-05-24T01:18:47.379Z,1.40
2023-05-24T01:21:48.355Z,1.58
2023-05-24T01:24:42.447Z,1.17
2023-05-24T01:27:14.507Z,0.93
2023-05-24T01:29:46.188Z,1.77
2023-05-24T01:32:13.186Z,1.30
2023-05-24T01:34:40.145Z,1.45
2023-05-24T01:37:11.554Z,1.25
2023-05-24T01:39:39.547Z,1.10
2023-05-24T01:42:25.280Z,1.42
2023-05-24T01:45:22.908Z,1.00
2023-05-24T01:48:09.083Z,1.27
2023-05-24T01:50:45.728Z,1.52
2023-05-24T01:53:18.298Z,1.10
2023-05-24T01:55:49.154Z,1.40
2023-05-24T01:58:19.142Z,1.45
2023-05-24T02:00:46.532Z,1.20
2023-05-24T02:03:16.639Z,1.35
2023-05-24T02:05:48.817Z,1.10
2023-05-24T02:08:18.250Z,1.30
2023-05-24T02:10:45.511Z,1.10
2023-05-24T02:13:18.180Z,1.40
2023-05-24T02:18:15.127Z,1.05
2023-05-24T02:20:47.139Z,1.30
2023-05-24T02:23:16.299Z,1.40
2023-05-24T02:25:47.837Z,1.13
2023-05-24T02:28:20.132Z,1.27
2023-05-24T02:30:47.763Z,0.95
2023-05-24T02:33:14.794Z,1.25
2023-05-24T02:35:41.858Z,1.10
2023-05-24T02:38:13.642Z,0.90
2023-05-24T02:40:40.906Z,1.15
2023-05-24T02:43:09.709Z,1.25
2023-05-24T02:45:41.323Z,1.30
2023-05-24T02:48:08.392Z,1.23
2023-05-24T02:50:40.276Z,1.30
2023-05-24T02:53:07.310Z,1.08
2023-05-24T02:55:37.365Z,1.20
2023-05-24T02:58:04.371Z,1.40
2023-05-24T03:00:35.216Z,1.30
2023-05-24T03:03:04.905Z,1.25
2023-05-24T03:05:32.825Z,1.30
2023-05-24T03:08:02.293Z,1.25
2023-05-24T03:10:31.511Z,1.30
2023-05-24T03:12:58.496Z,1.10
2023-05-24T03:15:32.539Z,1.05
2023-05-24T03:17:59.616Z,1.60
2023-05-24T03:20:29.094Z,1.20
2023-05-24T03:22:58.509Z,1.10
2023-05-24T03:25:27.652Z,1.40
2023-05-24T03:27:56.822Z,1.20
2023-05-24T03:30:24.244Z,1.20
2023-05-24T03:32:55.043Z,1.48
2023-05-24T03:35:22.262Z,1.10
2023-05-24T03:37:54.106Z,1.30
2023-05-24T03:40:21.335Z,1.40
2023-05-24T03:43:04.718Z,1.38
2023-05-24T03:45:46.157Z,1.40
2023-05-24T03:48:13.583Z,1.10
2023-05-24T03:50:45.598Z,1.13
2023-05-24T03:53:12.660Z,1.30
2023-05-24T03:55:39.684Z,1.00
2023-05-24T03:58:12.693Z,1.27
2023-05-24T04:00:44.528Z,1.30
2023-05-24T04:03:20.116Z,1.33
2023-05-24T04:05:50.355Z,1.27
2023-05-24T04:08:19.534Z,1.33
2023-05-24T04:10:53.673Z,1.30
2023-05-24T04:13:22.852Z,1.17
2023-05-24T04:15:57.601Z,1.30
2023-05-24T04:18:26.804Z,1.75
2023-05-24T04:20:57.333Z,1.10
2023-05-24T04:23:26.429Z,1.30
2023-05-24T04:26:01.318Z,1.30
2023-05-24T04:28:31.853Z,1.20
2023-05-24T04:31:02.068Z,1.45
2023-05-24T04:33:29.124Z,1.60
2023-05-24T04:35:56.124Z,1.40
2023-05-24T04:38:24.980Z,1.38
2023-05-24T04:40:52.292Z,1.05
2023-05-24T04:43:21.472Z,1.33
2023-05-24T04:45:48.628Z,1.60
2023-05-24T04:48:21.246Z,1.13
2023-05-24T04:50:48.208Z,1.60
2023-05-24T04:53:15.137Z,1.83
2023-05-24T04:55:48.209Z,1.98
2023-05-24T04:58:16.084Z,1.55
2023-05-24T05:00:47.807Z,2.03
2023-05-24T05:03:17.043Z,1.92
2023-05-24T05:05:46.618Z,1.60
2023-05-24T05:08:15.943Z,2.00
2023-05-24T05:10:43.325Z,2.20
2023-05-24T05:13:12.655Z,3.05
2023-05-24T05:15:40.958Z,2.25
2023-05-24T05:18:09.788Z,2.65
2023-05-24T05:20:39.040Z,2.97
2023-05-24T05:23:11.048Z,3.08
2023-05-24T05:25:38.013Z,3.10
2023-05-24T05:28:04.998Z,3.00
2023-05-24T05:30:34.098Z,3.65
2023-05-24T05:33:06.150Z,3.30
2023-05-24T05:35:41.428Z,3.35
2023-05-24T05:38:10.524Z,3.83
2023-05-24T05:40:45.225Z,3.20
2023-05-24T05:43:14.577Z,2.80
2023-05-24T05:45:41.629Z,3.65
2023-05-24T05:48:11.139Z,3.25
2023-05-24T05:50:38.142Z,3.22
2023-05-24T05:53:05.097Z,3.67
2023-05-24T05:55:32.077Z,3.25
2023-05-24T05:57:59.051Z,3.00
2023-05-24T06:00:31.067Z,3.50
2023-05-24T06:02:58.152Z,3.70
2023-05-24T06:05:27.517Z,3.42
2023-05-24T06:07:54.573Z,3.88
2023-05-24T06:10:21.606Z,3.50
2023-05-24T06:12:53.266Z,3.92
2023-05-24T06:15:25.022Z,4.18
2023-05-24T06:17:55.321Z,4.32
2023-05-24T06:20:23.458Z,4.32
2023-05-24T06:22:50.902Z,3.80
2023-05-24T06:25:21.146Z,3.92
2023-05-24T06:27:48.225Z,4.30
2023-05-24T06:30:15.305Z,3.63
2023-05-24T06:32:42.379Z,3.80
2023-05-24T06:35:11.932Z,4.03
2023-05-24T06:37:38.957Z,4.10
2023-05-24T06:40:08.964Z,3.80
2023-05-24T06:42:37.058Z,4.20
2023-05-24T06:45:04.227Z,4.25
2023-05-24T06:47:33.661Z,3.97
2023-05-24T06:50:01.165Z,4.32
2023-05-24T06:52:30.905Z,3.80
2023-05-24T06:55:00.359Z,3.90
2023-05-24T06:57:30.330Z,3.95
2023-05-24T07:00:00.298Z,4.32
2023-05-24T07:02:28.720Z,4.22
2023-05-24T07:04:58.358Z,4.00
2023-05-24T07:07:28.425Z,4.10
2023-05-24T07:09:57.632Z,4.82
2023-05-24T07:12:24.617Z,4.40
2023-05-24T07:14:56.112Z,4.05
2023-05-24T07:17:30.265Z,4.10
2023-05-24T07:19:57.551Z,3.50
2023-05-24T07:22:28.778Z,3.97
2023-05-24T07:25:00.450Z,3.50
2023-05-24T07:27:27.591Z,3.72
2023-05-24T07:29:54.637Z,3.90
2023-05-24T07:32:24.306Z,3.60
2023-05-24T07:34:52.109Z,3.97
2023-05-24T07:37:19.179Z,3.83
2023-05-24T07:39:46.148Z,3.90
2023-05-24T07:42:15.576Z,3.67
2023-05-24T07:44:45.135Z,3.90
2023-05-24T07:47:16.906Z,3.88
2023-05-24T07:49:43.889Z,3.90
2023-05-24T07:52:18.182Z,4.20
2023-05-24T07:54:45.243Z,4.07
2023-05-24T07:57:12.663Z,4.18
2023-05-24T07:59:39.625Z,3.95
2023-05-24T08:02:06.635Z,3.78
2023-05-24T08:04:35.906Z,4.13
2023-05-24T08:07:06.293Z,3.60
2023-05-24T08:09:35.876Z,4.00
2023-05-24T08:12:10.256Z,3.97
2023-05-24T08:17:08.900Z,3.60
2023-05-24T08:19:36.125Z,3.63
2023-05-24T08:22:05.919Z,3.72
2023-05-24T08:24:33.046Z,3.65
2023-05-24T08:27:00.192Z,3.92
2023-05-24T08:29:29.654Z,3.92
2023-05-24T08:31:56.717Z,3.58
2023-05-24T08:34:23.741Z,3.85
2023-05-24T08:36:50.754Z,4.15
2023-05-24T08:39:20.205Z,3.50
2023-05-24T08:42:00.933Z,3.33
2023-05-24T08:44:53.439Z,3.50
2023-05-24T08:47:23.539Z,4.07
2023-05-24T08:49:55.100Z,3.60
2023-05-24T08:52:25.814Z,3.47
2023-05-24T08:54:55.471Z,4.00
2023-05-24T08:57:30.887Z,3.55
2023-05-24T09:00:00.419Z,3.67
2023-05-24T09:02:31.892Z,3.00
2023-05-24T09:04:58.873Z,3.40
2023-05-24T09:07:25.888Z,3.70
2023-05-24T09:10:05.170Z,3.80
2023-05-24T09:12:38.681Z,3.78
2023-05-24T09:15:07.199Z,3.70
2023-05-24T09:17:37.212Z,3.30
2023-05-24T09:20:09.046Z,3.90
2023-05-24T09:22:42.261Z,3.60
2023-05-24T09:25:10.250Z,3.88
2023-05-24T09:27:41.925Z,3.50
2023-05-24T09:30:10.332Z,3.78
2023-05-24T09:32:39.847Z,3.03
2023-05-24T09:35:12.889Z,3.08
2023-05-24T09:37:41.982Z,2.78
2023-05-24T09:40:20.328Z,3.50
2023-05-24T09:42:49.063Z,2.90
2023-05-24T09:45:16.335Z,3.10
2023-05-24T09:47:45.433Z,3.65
2023-05-24T09:50:18.147Z,3.78
2023-05-24T09:52:47.464Z,3.10
2023-05-24T09:55:18.547Z,3.10
2023-05-24T09:58:06.011Z,3.30
2023-05-24T10:00:39.952Z,3.42
2023-05-24T10:03:08.530Z,3.15
2023-05-24T10:05:38.176Z,3.15
2023-05-24T10:08:05.312Z,3.70
2023-05-24T10:10:39.268Z,3.22
2023-05-24T10:13:06.271Z,3.17
2023-05-24T10:15:36.274Z,3.45
2023-05-24T10:18:10.575Z,3.40
2023-05-24T10:20:38.730Z,3.40
2023-05-24T10:23:09.979Z,3.13
2023-05-24T10:25:38.856Z,3.42
2023-05-24T10:28:10.175Z,3.33
2023-05-24T10:30:54.265Z,3.33
2023-05-24T10:33:26.310Z,3.35
2023-05-24T10:38:23.632Z,3.40
2023-05-24T10:40:50.978Z,2.95
2023-05-24T10:43:20.325Z,3.33
2023-05-24T10:45:53.258Z,2.88
2023-05-24T10:48:41.256Z,3.40
2023-05-24T10:51:41.232Z,3.30
2023-05-24T10:54:17.630Z,3.38
2023-05-24T10:56:48.356Z,3.70
2023-05-24T10:59:33.582Z,4.05
2023-05-24T11:02:06.152Z,3.35
2023-05-24T11:04:40.165Z,3.60
2023-05-24T11:07:10.807Z,3.38
2023-05-24T11:09:46.432Z,2.88
2023-05-24T11:12:23.032Z,4.10
2023-05-24T11:14:53.140Z,3.63
2023-05-24T11:17:23.828Z,3.20
2023-05-24T11:19:54.454Z,3.28
2023-05-24T11:22:25.454Z,3.53
2023-05-24T11:24:55.198Z,3.22
2023-05-24T11:27:24.371Z,3.58
2023-05-24T11:29:57.366Z,3.70
2023-05-24T11:32:25.281Z,2.97
2023-05-24T11:34:52.454Z,3.03
2023-05-24T11:37:19.577Z,3.00
2023-05-24T11:39:54.411Z,3.58
2023-05-24T11:42:24.325Z,3.60
2023-05-24T11:44:52.835Z,3.03
2023-05-24T11:47:20.753Z,3.17
2023-05-24T11:49:52.701Z,3.17
2023-05-24T11:52:22.260Z,3.42
2023-05-24T11:54:55.115Z,3.88
2023-05-24T11:57:27.576Z,3.50
2023-05-24T11:59:55.411Z,3.80
2023-05-24T12:02:23.563Z,3.78
2023-05-24T12:04:54.224Z,3.22
2023-05-24T12:07:25.570Z,2.90
2023-05-24T12:09:55.948Z,2.85
2023-05-24T12:12:30.843Z,2.92
2023-05-24T12:15:08.207Z,2.75
2023-05-24T12:17:37.529Z,2.97
2023-05-24T12:20:06.314Z,3.30
2023-05-24T12:22:35.857Z,3.35
2023-05-24T12:25:03.832Z,2.50
2023-05-24T12:27:34.774Z,3.05
2023-05-24T12:30:10.025Z,3.15
2023-05-24T12:32:37.103Z,3.17
2023-05-24T12:35:04.555Z,3.00
2023-05-24T12:37:32.343Z,3.17
2023-05-24T12:40:01.495Z,3.25
2023-05-24T12:42:28.561Z,2.53
2023-05-24T12:44:55.600Z,3.28
2023-05-24T12:47:22.710Z,3.10
2023-05-24T12:49:52.334Z,3.13
2023-05-24T12:52:22.927Z,3.30
2023-05-24T12:54:51.689Z,3.28
2023-05-24T12:57:18.683Z,3.55
2023-05-24T12:59:45.787Z,3.30
2023-05-24T13:02:30.416Z,2.80
2023-05-24T13:04:59.629Z,2.72
2023-05-24T13:07:26.772Z,3.00
2023-05-24T13:09:53.773Z,3.17
2023-05-24T13:12:23.923Z,2.70
2023-05-24T13:14:52.775Z,2.95
2023-05-24T13:17:22.471Z,2.85
2023-05-24T13:19:49.762Z,2.70
2023-05-24T13:22:16.851Z,3.42
2023-05-24T13:24:46.368Z,2.72
2023-05-24T13:27:13.656Z,3.15
2023-05-24T13:29:59.328Z,2.67
2023-05-24T13:32:27.802Z,2.70
2023-05-24T13:34:57.611Z,2.97
2023-05-24T13:37:25.539Z,2.65
2023-05-24T13:39:55.343Z,2.72
2023-05-24T13:42:23.133Z,2.60
2023-05-24T13:44:52.783Z,2.78
2023-05-24T13:47:31.164Z,2.80
2023-05-24T13:50:03.753Z,2.75
2023-05-24T13:52:31.088Z,2.80
2023-05-24T13:55:02.440Z,3.22
2023-05-24T13:57:46.944Z,2.70
2023-05-24T14:00:18.483Z,3.00
2023-05-24T14:02:48.118Z,2.88
2023-05-24T14:05:26.701Z,2.88
2023-05-24T14:07:55.651Z,3.22
2023-05-24T14:10:24.890Z,3.33
2023-05-24T14:13:15.119Z,3.00
2023-05-24T14:15:46.891Z,3.00
2023-05-24T14:18:14.555Z,2.65
2023-05-24T14:20:41.652Z,2.95
2023-05-24T14:23:09.023Z,2.85
2023-05-24T14:25:36.022Z,2.97
2023-05-24T14:28:03.918Z,2.97
2023-05-24T14:30:37.843Z,3.08
2023-05-24T14:33:08.368Z,2.92
2023-05-24T14:35:39.497Z,3.10
2023-05-24T14:38:07.156Z,3.30
2023-05-24T14:40:34.405Z,3.22
2023-05-24T14:43:03.987Z,3.20
2023-05-24T14:45:33.554Z,3.28
2023-05-24T14:48:01.125Z,3.05
2023-05-24T14:50:28.205Z,3.00
2023-05-24T14:52:57.508Z,3.38
2023-05-24T14:55:26.832Z,2.95
2023-05-24T14:57:53.880Z,3.25
2023-05-24T15:00:22.771Z,3.70
2023-05-24T15:02:51.160Z,3.35
2023-05-24T15:05:20.405Z,3.20
2023-05-24T15:07:47.466Z,3.20
2023-05-24T15:10:14.504Z,3.55
2023-05-24T15:12:41.579Z,3.13
2023-05-24T15:15:08.984Z,3.22
2023-05-24T15:17:37.056Z,3.38
2023-05-24T15:20:09.029Z,3.22
2023-05-24T15:22:38.574Z,3.13
2023-05-24T15:25:08.590Z,3.50
2023-05-24T15:27:35.559Z,3.33
2023-05-24T15:30:02.577Z,3.13
2023-05-24T15:32:31.831Z,3.38
2023-05-24T15:35:01.464Z,3.70
2023-05-24T15:37:30.833Z,3.70
2023-05-24T15:39:57.796Z,3.35
2023-05-24T15:42:25.249Z,3.38
2023-05-24T15:44:56.888Z,3.42
2023-05-24T15:47:29.242Z,3.50
2023-05-24T15:49:58.693Z,3.53
2023-05-24T15:52:25.732Z,3.42
2023-05-24T15:54:52.697Z,3.33
2023-05-24T15:57:19.738Z,4.10
2023-05-24T15:59:46.722Z,3.65
2023-05-24T16:02:17.531Z,3.65
2023-05-24T16:04:47.724Z,3.42
2023-05-24T16:07:14.702Z,3.55
2023-05-24T16:09:46.329Z,3.58
2023-05-24T16:12:15.522Z,3.40
2023-05-24T16:14:42.536Z,3.60
2023-05-24T16:17:10.322Z,3.33
2023-05-24T16:19:39.768Z,3.58
2023-05-24T16:22:09.732Z,3.63
2023-05-24T16:24:38.837Z,3.65
2023-05-24T16:27:06.827Z,3.70
2023-05-24T16:29:39.491Z,3.33
2023-05-24T16:32:07.650Z,3.90
2023-05-24T16:34:55.043Z,3.80
2023-05-24T16:37:25.737Z,3.92
2023-05-24T16:39:52.775Z,3.70
2023-05-24T16:42:19.877Z,3.78
2023-05-24T16:44:49.312Z,3.83
2023-05-24T16:47:18.550Z,3.75
2023-05-24T16:49:45.537Z,3.38
2023-05-24T16:52:12.543Z,3.97
2023-05-24T16:54:39.538Z,3.90
2023-05-24T16:57:06.793Z,4.10
2023-05-24T16:59:38.999Z,4.10
2023-05-24T17:02:08.709Z,4.00
2023-05-24T17:04:37.902Z,3.80
2023-05-24T17:07:07.426Z,3.65
2023-05-24T17:09:38.061Z,3.70
2023-05-24T17:12:09.515Z,3.60
2023-05-24T17:14:38.720Z,3.50
2023-05-24T17:17:11.797Z,3.55
2023-05-24T17:19:41.462Z,4.00
2023-05-24T17:22:08.939Z,3.72
2023-05-24T17:24:35.915Z,4.15
2023-05-24T17:27:02.930Z,3.35
2023-05-24T17:29:30.188Z,3.70
2023-05-24T17:31:59.557Z,3.40
2023-05-24T17:34:26.843Z,4.00
2023-05-24T17:36:53.788Z,3.60
2023-05-24T17:39:23.899Z,3.67
2023-05-24T17:41:53.077Z,3.13
2023-05-24T17:44:20.093Z,3.53
2023-05-24T17:46:47.057Z,3.47
2023-05-24T17:49:14.350Z,3.50
2023-05-24T17:51:41.305Z,3.42
2023-05-24T17:54:10.610Z,3.67
2023-05-24T17:56:39.889Z,3.47
2023-05-24T17:59:07.292Z,3.50
2023-05-24T18:01:37.309Z,3.53
2023-05-24T18:04:08.331Z,3.30
2023-05-24T18:06:38.577Z,3.60
2023-05-24T18:09:05.672Z,3.70
2023-05-24T18:11:32.670Z,3.58
2023-05-24T18:14:00.524Z,3.60
2023-05-24T18:16:27.703Z,3.53
2023-05-24T18:18:57.247Z,3.33
2023-05-24T18:21:26.751Z,3.30
2023-05-24T18:23:53.803Z,3.40
2023-05-24T18:26:22.924Z,3.80
2023-05-24T18:28:49.935Z,3.45
2023-05-24T18:31:20.449Z,3.42
2023-05-24T18:33:49.905Z,3.60
2023-05-24T18:36:16.897Z,3.78
2023-05-24T18:38:47.229Z,4.72
2023-05-24T18:41:17.356Z,4.13
2023-05-24T18:43:44.458Z,3.60
2023-05-24T18:46:13.933Z,4.10
2023-05-24T18:48:41.713Z,3.42
2023-05-24T18:51:08.801Z,3.97
2023-05-24T18:53:36.324Z,3.97
2023-05-24T18:56:03.523Z,3.88
2023-05-24T18:58:30.992Z,3.47
2023-05-24T19:00:58.083Z,3.80
2023-05-24T19:03:25.433Z,3.75
2023-05-24T19:05:52.472Z,3.60
2023-05-24T19:08:19.496Z,3.70
2023-05-24T19:10:49.031Z,3.35
2023-05-24T19:13:18.390Z,3.42
2023-05-24T19:15:45.661Z,3.70
2023-05-24T19:18:12.870Z,3.75
2023-05-24T19:20:39.931Z,3.88
2023-05-24T19:23:09.093Z,4.00
2023-05-24T19:25:41.964Z,4.15
2023-05-24T19:28:11.675Z,3.40
2023-05-24T19:30:40.912Z,4.40
2023-05-24T19:33:10.145Z,4.20
2023-05-24T19:35:43.873Z,3.88
2023-05-24T19:38:12.103Z,3.90
2023-05-24T19:40:39.156Z,4.22
2023-05-24T19:43:06.115Z,4.05
2023-05-24T19:45:33.078Z,3.67
2023-05-24T19:48:00.226Z,3.88
2023-05-24T19:50:29.774Z,3.72
2023-05-24T19:53:00.187Z,3.92
2023-05-24T19:55:27.194Z,4.60
2023-05-24T19:57:54.172Z,4.28
2023-05-24T20:00:21.369Z,4.30
2023-05-24T20:02:55.288Z,4.25
2023-05-24T20:05:22.426Z,4.45
2023-05-24T20:07:49.441Z,4.28
2023-05-24T20:10:18.906Z,4.10
2023-05-24T20:12:46.008Z,4.43
2023-05-24T20:15:15.892Z,4.32
2023-05-24T20:17:45.586Z,4.50
2023-05-24T20:20:12.861Z,3.92
2023-05-24T20:22:39.863Z,4.15
2023-05-24T20:25:07.928Z,4.30
2023-05-24T20:27:34.929Z,4.38
2023-05-24T20:30:04.764Z,3.97
2023-05-24T20:32:32.135Z,4.00
2023-05-24T20:34:59.122Z,4.15
2023-05-24T20:37:28.596Z,4.10
2023-05-24T20:39:55.580Z,4.13
2023-05-24T20:42:24.822Z,4.20
2023-05-24T20:44:51.852Z,3.90
2023-05-24T20:47:19.294Z,3.80
2023-05-24T20:49:46.398Z,4.05
2023-05-24T20:52:13.527Z,3.35
2023-05-24T20:54:42.867Z,4.03
2023-05-24T20:57:12.061Z,4.03
2023-05-24T20:59:41.545Z,3.75
2023-05-24T21:02:13.229Z,4.00
2023-05-24T21:04:45.066Z,4.32
2023-05-24T21:07:14.299Z,4.20
2023-05-24T21:09:46.166Z,4.28
2023-05-24T21:12:15.385Z,3.72
2023-05-24T21:14:42.367Z,3.95
2023-05-24T21:17:11.949Z,4.60
2023-05-24T21:19:41.646Z,4.32
2023-05-24T21:22:10.888Z,4.20
2023-05-24T21:24:40.073Z,4.55
2023-05-24T21:27:07.969Z,4.00
2023-05-24T21:29:38.008Z,4.20
2023-05-24T21:32:05.146Z,4.18
2023-05-24T21:34:32.245Z,4.18
2023-05-24T21:37:06.255Z,3.83
2023-05-24T21:39:35.732Z,4.22
2023-05-24T21:42:05.534Z,3.85
2023-05-24T21:44:32.545Z,4.72
2023-05-24T21:46:59.616Z,4.88
2023-05-24T21:49:27.614Z,4.35
2023-05-24T21:51:54.631Z,4.50
2023-05-24T21:54:21.710Z,4.38
2023-05-24T21:56:51.436Z,4.35
2023-05-24T21:59:18.392Z,4.63
2023-05-24T22:01:45.577Z,5.43
2023-05-24T22:04:12.758Z,4.95
2023-05-24T22:06:41.567Z,5.85
2023-05-24T22:09:09.578Z,5.32
2023-05-24T22:11:36.624Z,5.25
2023-05-24T22:14:06.235Z,5.05
2023-05-24T22:16:36.085Z,5.28
2023-05-24T22:19:11.738Z,5.25
2023-05-24T22:21:41.780Z,5.45
2023-05-24T22:24:09.644Z,5.68
2023-05-24T22:26:36.823Z,5.78
2023-05-24T22:29:04.390Z,5.05
2023-05-24T22:31:33.544Z,6.18
2023-05-24T22:34:06.107Z,6.03
2023-05-24T22:36:37.837Z,5.75
2023-05-24T22:39:05.184Z,5.60
2023-05-24T22:41:32.237Z,5.15
2023-05-24T22:44:01.506Z,5.35
2023-05-24T22:46:31.392Z,6.22
2023-05-24T22:49:03.067Z,6.13
2023-05-24T22:51:30.141Z,6.18
2023-05-24T22:53:57.266Z,5.45
2023-05-24T22:56:24.417Z,5.03
2023-05-24T22:58:53.295Z,5.80
2023-05-24T23:01:22.578Z,6.05
2023-05-24T23:03:49.607Z,5.57
2023-05-24T23:06:17.709Z,6.07
2023-05-24T23:08:47.786Z,6.18
2023-05-24T23:11:17.329Z,6.28
2023-05-24T23:13:45.335Z,5.43
2023-05-24T23:16:18.082Z,5.82
2023-05-24T23:18:45.572Z,5.78
2023-05-24T23:21:14.831Z,6.43
2023-05-24T23:23:46.215Z,5.95
2023-05-24T23:26:13.239Z,6.28
2023-05-24T23:28:43.181Z,6.72
2023-05-24T23:31:12.336Z,7.10
2023-05-24T23:33:41.575Z,6.50
2023-05-24T23:36:09.957Z,6.60
2023-05-24T23:38:40.541Z,6.47
2023-05-24T23:41:07.683Z,7.22
2023-05-24T23:43:34.663Z,6.82
2023-05-24T23:46:04.117Z,6.53
2023-05-24T23:48:31.219Z,6.18
2023-05-24T23:50:58.176Z,6.00
2023-05-24T23:53:25.170Z,6.20
2023-05-24T23:55:54.418Z,5.85
2023-05-24T23:58:23.639Z,6.38
